createdAt,value
2023-08-15T00:02:06.391Z,21.40
2023-08-15T00:04:37.226Z,21.30
2023-08-15T00:07:11.724Z,21.30
2023-08-15T00:09:38.593Z,21.30
2023-08-15T00:12:08.982Z,21.30
2023-08-15T00:14:35.723Z,21.20
2023-08-15T00:17:03.156Z,21.20
2023-08-15T00:19:30.045Z,21.10
2023-08-15T00:21:57.260Z,21.20
2023-08-15T00:24:24.388Z,21.20
2023-08-15T00:26:51.606Z,21.30
2023-08-15T00:29:18.773Z,21.50
2023-08-15T00:31:45.535Z,21.50
2023-08-15T00:34:12.730Z,21.80
2023-08-15T00:36:39.858Z,22.00
2023-08-15T00:39:07.052Z,22.10
2023-08-15T00:41:33.850Z,22.10
2023-08-15T00:44:01.140Z,22.20
2023-08-15T00:46:29.468Z,22.20
2023-08-15T00:48:57.253Z,22.20
2023-08-15T00:51:24.341Z,22.40
2023-08-15T00:53:52.704Z,22.50
2023-08-15T00:56:20.204Z,22.50
2023-08-15T00:58:47.737Z,22.30
2023-08-15T01:01:22.780Z,22.30
2023-08-15T01:03:50.549Z,22.30
2023-08-15T01:06:17.854Z,22.30
2023-08-15T01:08:45.288Z,22.20
2023-08-15T01:11:12.383Z,22.10
2023-08-15T01:14:01.422Z,22.20
2023-08-15T01:16:36.640Z,21.90
2023-08-15T01:19:25.086Z,21.80
2023-08-15T01:21:55.812Z,21.70
2023-08-15T01:24:24.122Z,21.70
2023-08-15T01:26:50.908Z,21.70
2023-08-15T01:29:18.060Z,21.80
2023-08-15T01:32:05.869Z,21.70
2023-08-15T01:34:42.006Z,21.80
2023-08-15T01:37:15.807Z,21.80
2023-08-15T01:39:45.092Z,21.80
2023-08-15T01:42:13.337Z,21.70
2023-08-15T01:44:40.534Z,21.70
2023-08-15T01:47:07.727Z,21.70
2023-08-15T01:49:34.880Z,21.70
2023-08-15T01:52:01.738Z,21.70
2023-08-15T01:54:28.928Z,21.70
2023-08-15T01:56:56.096Z,21.70
2023-08-15T01:59:23.229Z,21.70
2023-08-15T02:01:50.217Z,21.80
2023-08-15T02:04:17.363Z,21.80
2023-08-15T02:06:44.110Z,21.80
2023-08-15T02:09:11.308Z,21.70
2023-08-15T02:11:38.097Z,21.80
2023-08-15T02:14:05.319Z,21.80
2023-08-15T02:16:32.160Z,21.80
2023-08-15T02:18:59.316Z,21.70
2023-08-15T02:21:26.068Z,21.70
2023-08-15T02:23:52.967Z,21.60
2023-08-15T02:26:20.524Z,21.70
2023-08-15T02:28:47.710Z,21.90
2023-08-15T02:31:14.476Z,22.10
2023-08-15T02:33:42.952Z,22.20
2023-08-15T02:36:09.837Z,22.20
2023-08-15T02:38:37.161Z,22.30
2023-08-15T02:41:04.652Z,22.30
2023-08-15T02:43:31.434Z,22.30
2023-08-15T02:45:58.681Z,22.30
2023-08-15T02:48:25.444Z,22.10
2023-08-15T02:50:52.185Z,22.10
2023-08-15T02:53:19.422Z,22.20
2023-08-15T02:55:51.000Z,22.10
2023-08-15T02:58:18.577Z,22.10
2023-08-15T03:00:45.453Z,22.00
2023-08-15T03:03:12.737Z,21.90
2023-08-15T03:05:39.855Z,21.60
2023-08-15T03:08:07.497Z,21.50
2023-08-15T03:10:36.750Z,21.30
2023-08-15T03:13:04.911Z,21.20
2023-08-15T03:15:31.686Z,21.40
2023-08-15T03:17:59.494Z,21.50
2023-08-15T03:20:27.460Z,21.60
2023-08-15T03:22:54.282Z,21.50
2023-08-15T03:25:21.437Z,21.40
2023-08-15T03:27:48.254Z,21.40
2023-08-15T03:30:15.490Z,21.30
2023-08-15T03:32:42.384Z,21.30
2023-08-15T03:35:09.620Z,21.20
2023-08-15T03:37:36.847Z,21.10
2023-08-15T03:40:05.533Z,20.90
2023-08-15T03:42:32.629Z,20.80
2023-08-15T03:44:59.403Z,20.60
2023-08-15T03:47:26.807Z,20.70
2023-08-15T03:49:53.629Z,20.70
2023-08-15T03:52:20.710Z,20.60
2023-08-15T03:54:47.931Z,20.60
2023-08-15T03:57:14.706Z,20.40
2023-08-15T03:59:41.960Z,20.40
2023-08-15T04:02:09.176Z,20.30
2023-08-15T04:04:35.945Z,20.30
2023-08-15T04:07:03.241Z,20.30
2023-08-15T04:09:30.382Z,20.10
2023-08-15T04:11:57.147Z,20.10
2023-08-15T04:14:24.306Z,20.10
2023-08-15T04:16:51.132Z,20.10
2023-08-15T04:19:18.307Z,20.10
2023-08-15T04:21:45.067Z,20.10
2023-08-15T04:24:11.882Z,20.10
2023-08-15T04:26:39.034Z,20.10
2023-08-15T04:29:05.831Z,20.00
2023-08-15T04:31:33.812Z,20.00
2023-08-15T04:34:00.651Z,20.00
2023-08-15T04:36:27.793Z,20.20
2023-08-15T04:38:54.540Z,20.30
2023-08-15T04:41:21.685Z,20.30
2023-08-15T04:43:48.751Z,20.40
2023-08-15T04:46:15.889Z,20.60
2023-08-15T04:48:42.758Z,20.80
2023-08-15T04:51:09.658Z,20.80
2023-08-15T04:53:36.781Z,20.90
2023-08-15T04:56:04.025Z,21.20
2023-08-15T04:58:30.779Z,21.30
2023-08-15T05:00:57.981Z,21.50
2023-08-15T05:03:24.738Z,21.40
2023-08-15T05:05:51.861Z,21.70
2023-08-15T05:08:19.040Z,21.70
2023-08-15T05:10:46.169Z,21.90
2023-08-15T05:13:13.554Z,21.90
2023-08-15T05:15:40.412Z,21.90
2023-08-15T05:18:07.301Z,22.10
2023-08-15T05:20:35.710Z,22.20
2023-08-15T05:23:02.459Z,22.30
2023-08-15T05:25:29.682Z,22.50
2023-08-15T05:27:57.072Z,22.70
2023-08-15T05:30:23.911Z,22.80
2023-08-15T05:32:51.134Z,22.90
2023-08-15T05:35:17.996Z,23.00
2023-08-15T05:37:44.768Z,23.10
2023-08-15T05:40:12.087Z,23.20
2023-08-15T05:42:38.980Z,23.30
2023-08-15T05:45:06.632Z,23.30
2023-08-15T05:47:34.024Z,23.40
2023-08-15T05:50:00.884Z,23.40
2023-08-15T05:52:28.537Z,23.50
2023-08-15T05:54:56.789Z,23.50
2023-08-15T05:57:24.366Z,23.60
2023-08-15T05:59:51.522Z,23.90
2023-08-15T06:02:20.255Z,24.30
2023-08-15T06:04:47.471Z,24.60
2023-08-15T06:07:17.211Z,24.70
2023-08-15T06:09:44.757Z,24.80
2023-08-15T06:12:11.595Z,24.80
2023-08-15T06:14:42.313Z,24.80
2023-08-15T06:17:09.605Z,25.00
2023-08-15T06:19:36.392Z,25.20
2023-08-15T06:22:04.522Z,25.40
2023-08-15T06:24:32.693Z,25.50
2023-08-15T06:26:59.460Z,25.80
2023-08-15T06:29:26.810Z,26.20
2023-08-15T06:31:54.860Z,26.30
2023-08-15T06:34:21.719Z,26.60
2023-08-15T06:36:48.482Z,26.80
2023-08-15T06:39:15.636Z,26.80
2023-08-15T06:41:42.401Z,26.80
2023-08-15T06:44:13.007Z,27.10
2023-08-15T06:46:40.620Z,27.30
2023-08-15T06:49:07.696Z,27.60
2023-08-15T06:51:34.599Z,27.60
2023-08-15T06:54:01.367Z,27.80
2023-08-15T06:56:28.483Z,28.00
2023-08-15T06:58:55.242Z,28.20
2023-08-15T07:01:22.451Z,28.60
2023-08-15T07:03:50.061Z,28.90
2023-08-15T07:06:17.811Z,29.20
2023-08-15T07:08:49.273Z,29.60
2023-08-15T07:11:16.115Z,30.10
2023-08-15T07:13:43.296Z,30.60
2023-08-15T07:16:10.488Z,30.90
2023-08-15T07:18:37.274Z,31.10
2023-08-15T07:21:04.787Z,31.20
2023-08-15T07:23:32.456Z,31.60
2023-08-15T07:26:01.822Z,31.70
2023-08-15T07:28:29.964Z,32.30
2023-08-15T07:30:57.231Z,32.80
2023-08-15T07:33:24.327Z,33.20
2023-08-15T07:35:51.153Z,33.80
2023-08-15T07:38:18.397Z,33.80
2023-08-15T07:40:45.267Z,34.50
2023-08-15T07:43:12.421Z,35.10
2023-08-15T07:45:39.288Z,35.00
2023-08-15T07:48:06.649Z,35.30
2023-08-15T07:50:33.511Z,35.30
2023-08-15T07:53:01.011Z,35.40
2023-08-15T07:55:30.502Z,35.70
2023-08-15T07:57:59.612Z,35.40
2023-08-15T08:00:26.688Z,36.00
2023-08-15T08:02:53.971Z,36.30
2023-08-15T08:05:23.380Z,36.80
2023-08-15T08:07:50.806Z,37.10
2023-08-15T08:10:17.979Z,36.00
2023-08-15T08:12:46.930Z,35.80
2023-08-15T08:15:14.681Z,36.60
2023-08-15T08:17:41.906Z,37.00
2023-08-15T08:20:14.080Z,37.50
2023-08-15T08:22:41.097Z,37.20
2023-08-15T08:25:21.137Z,36.50
2023-08-15T08:27:49.181Z,37.00
2023-08-15T08:30:21.531Z,37.10
2023-08-15T08:32:48.594Z,37.00
2023-08-15T08:35:19.107Z,37.40
2023-08-15T08:37:48.406Z,37.20
2023-08-15T08:40:16.817Z,37.10
2023-08-15T08:42:44.340Z,37.20
2023-08-15T08:45:12.118Z,36.90
2023-08-15T08:47:41.032Z,36.90
2023-08-15T08:50:12.156Z,36.70
2023-08-15T08:52:43.693Z,36.70
2023-08-15T08:55:11.557Z,37.10
2023-08-15T08:57:40.385Z,36.50
2023-08-15T09:00:09.407Z,36.70
2023-08-15T09:02:36.794Z,36.70
2023-08-15T09:05:05.811Z,36.40
2023-08-15T09:07:34.743Z,36.50
2023-08-15T09:10:01.735Z,37.20
2023-08-15T09:12:39.133Z,36.90
2023-08-15T09:15:08.657Z,36.00
2023-08-15T09:17:36.406Z,36.30
2023-08-15T09:20:17.697Z,36.40
2023-08-15T09:22:47.027Z,36.60
2023-08-15T09:25:21.158Z,36.50
2023-08-15T09:27:48.312Z,36.10
2023-08-15T09:30:16.862Z,36.20
2023-08-15T09:32:46.625Z,35.30
2023-08-15T09:35:16.604Z,35.30
2023-08-15T09:37:47.652Z,35.00
2023-08-15T09:40:19.997Z,34.60
2023-08-15T09:42:47.137Z,34.20
2023-08-15T09:45:16.029Z,33.70
2023-08-15T09:47:44.507Z,33.90
2023-08-15T09:50:14.234Z,33.60
2023-08-15T09:52:43.268Z,33.30
2023-08-15T09:55:15.982Z,33.00
2023-08-15T09:57:44.210Z,33.10
2023-08-15T10:00:14.403Z,33.60
2023-08-15T10:02:47.303Z,33.20
2023-08-15T10:05:19.547Z,33.10
2023-08-15T10:07:47.295Z,33.50
2023-08-15T10:10:16.563Z,33.50
2023-08-15T10:12:44.922Z,33.50
2023-08-15T10:15:13.344Z,33.30
2023-08-15T10:17:40.941Z,33.10
2023-08-15T10:20:12.369Z,32.80
2023-08-15T10:22:40.817Z,32.50
2023-08-15T10:25:36.773Z,32.30
2023-08-15T10:28:12.398Z,32.50
2023-08-15T10:30:52.621Z,32.30
2023-08-15T10:33:27.980Z,32.40
2023-08-15T10:35:57.874Z,32.60
2023-08-15T10:38:31.866Z,32.50
2023-08-15T10:41:03.967Z,32.60
2023-08-15T10:43:34.486Z,32.80
2023-08-15T10:46:03.175Z,33.00
2023-08-15T10:51:24.404Z,32.50
2023-08-15T10:53:53.146Z,32.40
2023-08-15T10:56:21.958Z,32.40
2023-08-15T10:58:49.870Z,32.60
2023-08-15T11:01:19.326Z,32.80
2023-08-15T11:03:49.032Z,32.80
2023-08-15T11:06:15.995Z,32.80
2023-08-15T11:08:44.974Z,32.70
2023-08-15T11:11:12.391Z,32.60
2023-08-15T11:13:41.642Z,32.60
2023-08-15T11:16:09.527Z,32.50
2023-08-15T11:18:37.971Z,32.60
2023-08-15T11:21:10.406Z,32.70
2023-08-15T11:23:37.952Z,32.60
2023-08-15T11:26:09.604Z,32.70
2023-08-15T11:28:37.790Z,32.80
2023-08-15T11:31:20.049Z,33.00
2023-08-15T11:33:54.045Z,33.00
2023-08-15T11:36:23.227Z,33.00
2023-08-15T11:38:50.600Z,32.90
2023-08-15T11:41:17.817Z,32.80
2023-08-15T11:43:46.254Z,32.90
2023-08-15T11:46:13.453Z,32.60
2023-08-15T11:48:47.731Z,32.80
2023-08-15T11:51:23.988Z,32.90
2023-08-15T11:53:52.253Z,32.80
2023-08-15T11:56:19.426Z,33.00
2023-08-15T11:58:47.459Z,33.00
2023-08-15T12:01:14.464Z,33.00
2023-08-15T12:03:41.993Z,32.80
2023-08-15T12:06:12.024Z,33.00
2023-08-15T12:08:40.604Z,32.90
2023-08-15T12:11:09.471Z,32.90
2023-08-15T12:13:41.631Z,33.00
2023-08-15T12:16:10.255Z,33.10
2023-08-15T12:18:37.473Z,33.30
2023-08-15T12:21:10.583Z,33.30
2023-08-15T12:23:39.276Z,33.20
2023-08-15T12:26:06.511Z,33.20
2023-08-15T12:28:37.365Z,33.20
2023-08-15T12:31:04.768Z,33.20
2023-08-15T12:33:41.917Z,33.10
2023-08-15T12:36:14.677Z,33.20
2023-08-15T12:38:41.791Z,33.30
2023-08-15T12:41:10.305Z,33.50
2023-08-15T12:43:37.687Z,33.50
2023-08-15T12:46:04.583Z,33.50
2023-08-15T12:48:31.870Z,33.30
2023-08-15T12:51:00.724Z,33.30
2023-08-15T12:53:28.190Z,33.40
2023-08-15T12:55:55.556Z,33.20
2023-08-15T12:58:22.464Z,33.30
2023-08-15T13:00:50.362Z,33.50
2023-08-15T13:03:19.295Z,33.50
2023-08-15T13:05:47.672Z,33.40
2023-08-15T13:08:16.963Z,33.60
2023-08-15T13:10:44.835Z,33.50
2023-08-15T13:13:12.014Z,33.50
2023-08-15T13:15:39.038Z,33.20
2023-08-15T13:18:06.455Z,33.00
2023-08-15T13:20:34.225Z,33.10
2023-08-15T13:23:01.584Z,33.20
2023-08-15T13:25:28.647Z,33.30
2023-08-15T13:27:55.452Z,33.30
2023-08-15T13:30:22.428Z,33.40
2023-08-15T13:32:49.543Z,33.40
2023-08-15T13:35:16.382Z,33.30
2023-08-15T13:37:43.440Z,33.40
2023-08-15T13:40:11.456Z,33.30
2023-08-15T13:42:40.254Z,33.30
2023-08-15T13:45:10.073Z,33.20
2023-08-15T13:47:40.599Z,33.30
2023-08-15T13:50:08.400Z,33.40
2023-08-15T13:52:38.446Z,33.30
2023-08-15T13:55:06.269Z,33.30
2023-08-15T13:57:33.831Z,33.40
2023-08-15T14:00:01.802Z,33.50
2023-08-15T14:02:29.643Z,33.40
2023-08-15T14:04:56.844Z,33.30
2023-08-15T14:07:23.942Z,33.30
2023-08-15T14:09:53.320Z,33.30
2023-08-15T14:12:24.049Z,33.40
2023-08-15T14:14:51.721Z,33.40
2023-08-15T14:17:18.590Z,33.50
2023-08-15T14:19:45.740Z,33.50
2023-08-15T14:22:12.866Z,33.40
2023-08-15T14:24:43.881Z,33.40
2023-08-15T14:27:11.023Z,33.50
2023-08-15T14:29:37.789Z,33.50
2023-08-15T14:32:07.778Z,33.50
2023-08-15T14:34:34.988Z,33.40
2023-08-15T14:37:02.245Z,33.30
2023-08-15T14:39:29.410Z,33.30
2023-08-15T14:41:56.257Z,33.30
2023-08-15T14:44:23.355Z,33.20
2023-08-15T14:46:50.545Z,33.10
2023-08-15T14:49:17.396Z,33.10
2023-08-15T14:51:44.598Z,33.10
2023-08-15T14:54:13.580Z,33.10
2023-08-15T14:56:41.289Z,33.10
2023-08-15T14:59:08.136Z,33.00
2023-08-15T15:01:35.361Z,32.90
2023-08-15T15:04:02.294Z,33.00
2023-08-15T15:06:29.463Z,32.80
2023-08-15T15:08:56.302Z,32.80
2023-08-15T15:11:23.449Z,32.80
2023-08-15T15:13:50.397Z,32.70
2023-08-15T15:16:17.548Z,32.80
2023-08-15T15:18:44.405Z,32.80
2023-08-15T15:21:11.249Z,32.70
2023-08-15T15:23:41.187Z,32.60
2023-08-15T15:26:08.341Z,32.60
2023-08-15T15:28:35.994Z,32.60
2023-08-15T15:31:02.746Z,32.50
2023-08-15T15:33:30.970Z,32.40
2023-08-15T15:35:57.798Z,32.40
2023-08-15T15:38:24.682Z,32.30
2023-08-15T15:40:52.075Z,32.20
2023-08-15T15:43:18.945Z,32.20
2023-08-15T15:45:45.767Z,32.20
2023-08-15T15:48:13.418Z,32.30
2023-08-15T15:50:41.742Z,32.30
2023-08-15T15:53:09.005Z,32.20
2023-08-15T15:55:35.845Z,32.20
2023-08-15T15:58:03.089Z,32.20
2023-08-15T16:00:29.910Z,32.10
2023-08-15T16:02:57.095Z,32.10
2023-08-15T16:05:24.068Z,32.00
2023-08-15T16:07:51.227Z,31.90
2023-08-15T16:10:18.638Z,31.90
2023-08-15T16:12:45.641Z,31.90
2023-08-15T16:15:12.867Z,31.80
2023-08-15T16:17:39.716Z,31.70
2023-08-15T16:20:07.700Z,31.70
2023-08-15T16:22:34.829Z,31.60
2023-08-15T16:25:01.670Z,31.60
2023-08-15T16:27:28.477Z,31.40
2023-08-15T16:30:03.192Z,31.40
2023-08-15T16:32:38.635Z,31.40
2023-08-15T16:35:06.192Z,31.40
2023-08-15T16:37:33.128Z,31.40
2023-08-15T16:39:59.893Z,31.30
2023-08-15T16:42:26.965Z,31.30
2023-08-15T16:44:54.134Z,31.30
2023-08-15T16:47:22.670Z,31.20
2023-08-15T16:49:49.836Z,31.20
2023-08-15T16:52:16.594Z,31.20
2023-08-15T16:54:43.392Z,31.10
2023-08-15T16:57:10.224Z,30.90
2023-08-15T16:59:36.996Z,30.90
2023-08-15T17:02:03.863Z,30.80
2023-08-15T17:04:31.045Z,30.70
2023-08-15T17:06:58.255Z,30.60
2023-08-15T17:09:26.013Z,30.50
2023-08-15T17:11:53.208Z,30.50
2023-08-15T17:14:19.992Z,30.30
2023-08-15T17:16:47.135Z,30.50
2023-08-15T17:19:13.953Z,30.50
2023-08-15T17:21:41.115Z,30.40
2023-08-15T17:24:08.090Z,30.40
2023-08-15T17:26:35.286Z,30.20
2023-08-15T17:29:02.324Z,30.10
2023-08-15T17:31:29.180Z,29.90
2023-08-15T17:33:56.437Z,29.80
2023-08-15T17:36:25.088Z,29.60
2023-08-15T17:38:51.971Z,29.50
2023-08-15T17:41:19.793Z,29.30
2023-08-15T17:43:46.580Z,29.20
2023-08-15T17:46:14.796Z,29.00
2023-08-15T17:48:42.078Z,28.90
2023-08-15T17:51:09.261Z,28.60
2023-08-15T17:53:36.020Z,28.60
2023-08-15T17:56:04.185Z,28.40
2023-08-15T17:58:50.273Z,28.40
2023-08-15T18:01:18.448Z,28.30
2023-08-15T18:03:46.356Z,28.20
2023-08-15T18:06:13.768Z,28.10
2023-08-15T18:08:40.950Z,27.90
2023-08-15T18:11:07.882Z,27.90
2023-08-15T18:13:37.609Z,27.90
2023-08-15T18:16:05.315Z,27.70
2023-08-15T18:18:32.112Z,27.60
2023-08-15T18:20:59.278Z,27.60
2023-08-15T18:23:26.536Z,27.40
2023-08-15T18:25:53.871Z,27.30
2023-08-15T18:28:20.619Z,27.30
2023-08-15T18:30:48.082Z,27.20
2023-08-15T18:33:15.599Z,27.10
2023-08-15T18:35:43.503Z,27.10
2023-08-15T18:38:10.440Z,27.00
2023-08-15T18:40:40.103Z,27.00
2023-08-15T18:43:09.069Z,27.00
2023-08-15T18:45:38.026Z,26.90
2023-08-15T18:48:05.227Z,26.90
2023-08-15T18:50:32.562Z,26.80
2023-08-15T18:52:59.305Z,26.70
2023-08-15T18:55:26.509Z,26.70
2023-08-15T18:57:53.415Z,26.60
2023-08-15T19:00:22.107Z,26.70
2023-08-15T19:02:49.591Z,26.70
2023-08-15T19:05:16.880Z,26.60
2023-08-15T19:07:44.243Z,26.50
2023-08-15T19:10:11.506Z,26.60
2023-08-15T19:12:38.633Z,26.60
2023-08-15T19:15:06.499Z,26.40
2023-08-15T19:17:34.038Z,26.50
2023-08-15T19:20:01.772Z,26.50
2023-08-15T19:22:28.977Z,26.40
2023-08-15T19:24:55.776Z,26.30
2023-08-15T19:27:22.997Z,26.20
2023-08-15T19:29:50.936Z,26.20
2023-08-15T19:32:18.134Z,26.10
2023-08-15T19:34:49.662Z,26.10
2023-08-15T19:37:23.394Z,26.10
2023-08-15T19:39:58.584Z,26.00
2023-08-15T19:42:25.373Z,26.00
2023-08-15T19:44:52.888Z,25.90
2023-08-15T19:47:20.104Z,25.80
2023-08-15T19:49:46.890Z,25.80
2023-08-15T19:52:14.993Z,25.80
2023-08-15T19:54:42.145Z,25.80
2023-08-15T19:57:08.896Z,25.70
2023-08-15T19:59:35.714Z,25.70
2023-08-15T20:02:02.498Z,25.60
2023-08-15T20:04:29.851Z,25.60
2023-08-15T20:06:56.801Z,25.70
2023-08-15T20:09:24.054Z,25.60
2023-08-15T20:11:51.270Z,25.50
2023-08-15T20:14:18.977Z,25.40
2023-08-15T20:16:46.978Z,25.30
2023-08-15T20:19:14.144Z,25.30
2023-08-15T20:21:41.679Z,25.50
2023-08-15T20:24:09.770Z,25.30
2023-08-15T20:26:36.639Z,25.30
2023-08-15T20:29:03.616Z,25.30
2023-08-15T20:31:31.357Z,25.30
2023-08-15T20:34:00.951Z,25.10
2023-08-15T20:36:27.814Z,25.10
2023-08-15T20:38:55.102Z,25.10
2023-08-15T20:41:22.585Z,25.00
2023-08-15T20:43:49.404Z,25.00
2023-08-15T20:46:16.288Z,25.10
2023-08-15T20:48:43.602Z,24.90
2023-08-15T20:51:11.996Z,24.80
2023-08-15T20:53:39.050Z,24.80
2023-08-15T20:56:05.925Z,24.70
2023-08-15T20:58:33.293Z,24.80
2023-08-15T21:01:00.184Z,24.80
2023-08-15T21:03:28.994Z,24.80
2023-08-15T21:05:55.755Z,24.80
2023-08-15T21:08:22.554Z,24.70
2023-08-15T21:10:49.398Z,24.70
2023-08-15T21:13:18.555Z,24.50
2023-08-15T21:15:46.069Z,24.60
2023-08-15T21:18:12.966Z,24.50
2023-08-15T21:20:41.331Z,24.60
2023-08-15T21:23:08.487Z,24.50
2023-08-15T21:25:35.917Z,24.40
2023-08-15T21:28:03.550Z,24.20
2023-08-15T21:30:30.892Z,24.30
2023-08-15T21:32:57.718Z,24.20
2023-08-15T21:35:24.896Z,24.40
2023-08-15T21:37:54.642Z,24.20
2023-08-15T21:40:21.945Z,24.30
2023-08-15T21:42:49.107Z,24.30
2023-08-15T21:45:17.026Z,24.20
2023-08-15T21:47:45.372Z,24.20
2023-08-15T21:50:12.300Z,24.20
2023-08-15T21:52:40.380Z,24.10
2023-08-15T21:55:07.654Z,24.10
2023-08-15T21:57:34.762Z,24.10
2023-08-15T22:00:01.943Z,24.10
2023-08-15T22:02:29.529Z,24.10
2023-08-15T22:04:57.096Z,24.00
2023-08-15T22:07:26.234Z,23.90
2023-08-15T22:09:53.571Z,23.80
2023-08-15T22:12:21.146Z,23.70
2023-08-15T22:14:50.631Z,23.60
2023-08-15T22:17:19.356Z,23.40
2023-08-15T22:19:52.164Z,23.50
2023-08-15T22:22:22.694Z,23.50
2023-08-15T22:25:04.563Z,23.30
2023-08-15T22:27:36.794Z,23.30
2023-08-15T22:30:05.105Z,23.20
2023-08-15T22:32:33.626Z,23.20
2023-08-15T22:35:00.985Z,23.20
2023-08-15T22:37:29.682Z,23.20
2023-08-15T22:39:56.932Z,23.00
2023-08-15T22:42:23.743Z,23.00
2023-08-15T22:44:50.896Z,23.10
2023-08-15T22:47:18.139Z,23.00
2023-08-15T22:49:44.887Z,22.90
2023-08-15T22:52:11.761Z,22.90
2023-08-15T22:54:38.539Z,22.90
2023-08-15T22:57:05.637Z,22.90
2023-08-15T22:59:32.418Z,22.80
2023-08-15T23:01:59.789Z,22.90
2023-08-15T23:04:26.613Z,22.80
2023-08-15T23:06:53.787Z,22.90
2023-08-15T23:09:20.571Z,22.80
2023-08-15T23:11:48.339Z,22.70
2023-08-15T23:14:15.563Z,22.70
2023-08-15T23:16:42.885Z,22.70
2023-08-15T23:19:09.677Z,22.70
2023-08-15T23:21:36.897Z,22.50
2023-08-15T23:24:05.786Z,22.40
2023-08-15T23:26:32.547Z,22.50
2023-08-15T23:28:59.803Z,22.50
2023-08-15T23:31:34.920Z,22.50
2023-08-15T23:34:05.698Z,22.40
2023-08-15T23:36:33.785Z,22.30
2023-08-15T23:39:01.314Z,22.30
2023-08-15T23:41:29.167Z,22.30
2023-08-15T23:43:55.934Z,22.10
2023-08-15T23:46:25.456Z,22.20
2023-08-15T23:48:53.161Z,22.10
2023-08-15T23:51:19.958Z,22.10
2023-08-15T23:53:48.628Z,22.10
2023-08-15T23:56:18.897Z,22.10
2023-08-15T23:58:46.650Z,22.10
